Time;durP1;ratioP1;P1;durP2;ratioP2;P2;SDS_P1;SDS_P2;PMS_P1;PMS_P2;Temp;Humidity;BMP_temperature;BMP_pressure;BME280_temperature;BME280_humidity;BME280_pressure;Samples;Min_cycle;Max_cycle;Signal;HPM_P1;HPM_P2
2022/05/02 00:00:00;;;;;;;1999.90;999.90;;;;;;;11.71;58.06;95480.25;4991648;28;20088;-65
2022/05/02 00:02:25;;;;;;;1999.90;999.90;;;;;;;11.59;57.79;95473.91;4991745;28;20101;-66
2022/05/02 00:04:51;;;;;;;1999.90;999.90;;;;;;;11.55;57.33;95470.25;4991095;28;20093;-66
2022/05/02 00:07:17;;;;;;;1999.90;999.90;;;;;;;11.28;58.01;95437.31;4991989;28;20161;-66
2022/05/02 00:09:42;;;;;;;1999.90;999.90;;;;;;;11.52;58.44;95455.69;4991634;28;20030;-65
2022/05/02 00:12:08;;;;;;;1999.90;999.90;;;;;;;11.59;57.94;95465.91;4991680;28;20102;-65
2022/05/02 00:14:33;;;;;;;1999.90;999.90;;;;;;;11.65;58.36;95472.69;4971836;28;20039;-65
2022/05/02 00:16:59;;;;;;;1999.90;999.90;;;;;;;11.61;58.40;95453.84;4972256;28;20683;-65
2022/05/02 00:19:24;;;;;;;1999.90;999.90;;;;;;;11.70;58.38;95478.69;4977052;28;20023;-66
2022/05/02 00:21:50;;;;;;;1999.90;999.90;;;;;;;11.69;57.85;95471.78;4991467;28;20034;-65
2022/05/02 00:24:16;;;;;;;1999.90;999.90;;;;;;;11.65;57.88;95470.03;4991779;28;20470;-65
2022/05/02 00:26:41;;;;;;;1999.90;999.90;;;;;;;11.69;58.07;95465.69;4991677;28;20032;-65
2022/05/02 00:29:07;;;;;;;1999.90;999.90;;;;;;;11.56;57.62;95445.19;4989697;28;20434;-65
2022/05/02 00:31:32;;;;;;;1999.90;999.90;;;;;;;11.65;57.69;95464.69;4991519;28;20144;-65
2022/05/02 00:33:57;;;;;;;1999.90;999.90;;;;;;;11.51;57.60;95435.44;4990587;28;20520;-65
2022/05/02 00:36:24;;;;;;;1999.90;999.90;;;;;;;11.45;57.80;95439.31;4990771;28;20097;-65
2022/05/02 00:38:50;;;;;;;1999.90;999.90;;;;;;;11.32;57.57;95416.97;4990935;28;20034;-65
2022/05/02 00:41:16;;;;;;;1999.90;999.90;;;;;;;11.55;57.84;95470.25;4991187;28;20041;-65
2022/05/02 00:43:41;;;;;;;1999.90;999.90;;;;;;;11.26;58.21;95426.19;4989207;28;20093;-65
2022/05/02 00:46:27;;;;;;;1999.90;999.90;;;;;;;11.50;57.53;95457.84;4991197;28;20093;-65
2022/05/02 00:48:53;;;;;;;1999.90;999.90;;;;;;;11.47;57.80;95455.03;4989277;28;20194;-65
2022/05/02 00:51:20;;;;;;;1999.90;999.90;;;;;;;11.21;57.96;95420.97;4991154;28;20355;-66
2022/05/02 00:53:51;;;;;;;1999.90;999.90;;;;;;;11.39;58.07;95443.97;4990998;28;20080;-65
2022/05/02 00:56:17;;;;;;;1999.90;999.90;;;;;;;11.40;58.18;95436.75;5006238;28;20026;-65
2022/05/02 00:58:44;;;;;;;1999.90;999.90;;;;;;;11.25;57.92;95413.94;4988221;23;20562;-68
2022/05/02 01:01:09;;;;;;;1999.90;999.90;;;;;;;11.38;57.58;95442.41;4970168;28;20031;-68
2022/05/02 01:03:35;;;;;;;1999.90;999.90;;;;;;;11.39;57.99;95443.97;4963594;28;20046;-70
2022/05/02 01:08:46;;;;;;;1999.90;999.90;;;;;;;11.22;57.90;95417.22;4951406;29;20407;-68
2022/05/02 01:11:12;;;;;;;1999.90;999.90;;;;;;;11.24;58.11;95419.56;4950890;28;20027;-69
2022/05/02 01:13:40;;;;;;;1999.90;999.90;;;;;;;11.33;57.88;95433.75;4952158;28;20019;-69
2022/05/02 01:16:13;;;;;;;1999.90;999.90;;;;;;;11.32;57.82;95429.50;4950806;28;20463;-68
2022/05/02 01:18:39;;;;;;;1999.90;999.90;;;;;;;11.04;57.73;95389.63;4948904;28;20027;-68
2022/05/02 01:21:19;;;;;;;1999.90;999.90;;;;;;;11.18;58.23;95414.34;4951988;28;20039;-68
2022/05/02 01:23:48;;;;;;;1999.90;999.90;;;;;;;11.07;58.13;95398.91;4950798;29;20443;-68
2022/05/02 01:26:14;;;;;;;1999.90;999.90;;;;;;;11.27;57.96;95429.63;4952073;28;20086;-69
2022/05/02 01:29:09;;;;;;;1999.90;999.90;;;;;;;11.24;57.85;95420.34;4950156;28;20027;-69
2022/05/02 01:31:34;;;;;;;1999.90;999.90;;;;;;;11.07;58.24;95396.25;4939241;28;20081;-69
2022/05/02 01:34:00;;;;;;;1999.90;999.90;;;;;;;11.11;57.86;95410.53;4951116;28;20031;-69
2022/05/02 01:36:26;;;;;;;1999.90;999.90;;;;;;;11.19;57.95;95418.59;4951831;28;20102;-69
2022/05/02 01:38:52;;;;;;;1999.90;999.90;;;;;;;11.18;57.28;95416.22;4950517;28;20059;-69
2022/05/02 01:41:18;;;;;;;1999.90;999.90;;;;;;;10.98;57.53;95398.81;4950129;29;20491;-68
2022/05/02 01:43:44;;;;;;;1999.90;999.90;;;;;;;11.04;57.01;95404.81;4951658;28;20090;-69
2022/05/02 01:46:11;;;;;;;1999.90;999.90;;;;;;;10.93;57.18;95388.28;4951712;28;20027;-68
2022/05/02 01:48:36;;;;;;;1999.90;999.90;;;;;;;11.01;57.56;95406.22;4948478;29;20443;-69
2022/05/02 01:51:03;;;;;;;1999.90;999.90;;;;;;;10.84;57.34;95382.09;4950931;28;20031;-68
2022/05/02 01:53:28;;;;;;;1999.90;999.90;;;;;;;11.07;57.47;95414.88;4951560;28;20055;-69
2022/05/02 01:55:54;;;;;;;1999.90;999.90;;;;;;;10.76;57.77;95359.66;4954212;28;20518;-69
2022/05/02 01:58:20;;;;;;;1999.90;999.90;;;;;;;11.00;57.28;95407.28;4955144;28;20046;-68
2022/05/02 02:00:46;;;;;;;1999.90;999.90;;;;;;;10.86;57.33;95385.25;4955777;28;20527;-69
2022/05/02 02:03:11;;;;;;;1999.90;999.90;;;;;;;10.87;56.96;95392.94;4954785;28;20423;-68
2022/05/02 02:05:49;;;;;;;1999.90;999.90;;;;;;;10.74;57.20;95380.44;4955466;28;20027;-69
2022/05/02 02:08:19;;;;;;;1999.90;999.90;;;;;;;10.63;56.90;95368.44;4954106;28;20275;-68
2022/05/02 02:10:45;;;;;;;1999.90;999.90;;;;;;;10.79;57.20;95390.97;4955282;29;20114;-69
2022/05/02 02:13:12;;;;;;;1999.90;999.90;;;;;;;10.76;57.50;95388.16;4951875;28;20115;-68
2022/05/02 02:15:37;;;;;;;1999.90;999.90;;;;;;;10.67;57.38;95380.06;4955163;28;20027;-69
2022/05/02 02:18:03;;;;;;;1999.90;999.90;;;;;;;10.83;57.13;95404.47;4954012;28;20510;-69
2022/05/02 02:20:29;;;;;;;1999.90;999.90;;;;;;;10.67;57.54;95377.41;4955135;28;20039;-69
2022/05/02 02:22:55;;;;;;;1999.90;999.90;;;;;;;10.47;57.59;95345.91;4955213;28;20122;-68
2022/05/02 02:25:20;;;;;;;1999.90;999.90;;;;;;;10.53;57.78;95360.66;4955057;28;20064;-69
2022/05/02 02:27:46;;;;;;;1999.90;999.90;;;;;;;10.51;57.26;95366.28;4953673;28;20110;-68
2022/05/02 02:30:12;;;;;;;1999.90;999.90;;;;;;;10.75;58.11;95402.50;4953845;28;20391;-69
2022/05/02 02:32:37;;;;;;;1999.90;999.90;;;;;;;10.57;57.65;95381.06;4953903;28;20046;-69
2022/05/02 02:35:03;;;;;;;1999.90;999.90;;;;;;;10.75;57.42;95403.31;4955154;28;20032;-69
2022/05/02 02:37:28;;;;;;;1999.90;999.90;;;;;;;10.70;58.06;95403.44;4954900;28;20496;-68
2022/05/02 02:39:53;;;;;;;1999.90;999.90;;;;;;;10.49;57.75;95373.78;4953337;28;20420;-68
2022/05/02 02:42:19;;;;;;;1999.90;999.90;;;;;;;10.43;57.85;95368.84;4954806;28;20024;-69
2022/05/02 02:44:44;;;;;;;1999.90;999.90;;;;;;;10.39;58.16;95363.38;4954100;28;20186;-68
2022/05/02 02:47:09;;;;;;;1999.90;999.90;;;;;;;10.56;57.39;95384.81;4954914;29;20127;-68
2022/05/02 02:49:35;;;;;;;1999.90;999.90;;;;;;;10.67;57.74;95401.34;4953164;29;20031;-69
2022/05/02 02:52:00;;;;;;;1999.90;999.90;;;;;;;10.51;57.76;95376.16;4954556;28;20031;-70
2022/05/02 02:54:26;;;;;;;1999.90;999.90;;;;;;;10.45;57.85;95372.03;4954744;28;20078;-69
2022/05/02 02:56:51;;;;;;;1999.90;999.90;;;;;;;10.62;57.79;95393.47;4954541;28;20090;-70
2022/05/02 02:59:16;;;;;;;1999.90;999.90;;;;;;;10.64;57.15;95394.75;4953554;28;20027;-68
2022/05/02 03:01:42;;;;;;;1999.90;999.90;;;;;;;10.70;57.48;95397.28;4954458;28;20110;-68
2022/05/02 03:06:53;;;;;;;1999.90;999.90;;;;;;;10.70;57.73;95395.44;4954161;28;20042;-69
2022/05/02 03:09:19;;;;;;;1999.90;999.90;;;;;;;10.60;57.68;95380.47;4952763;28;20031;-70
2022/05/02 03:11:45;;;;;;;1999.90;999.90;;;;;;;10.41;57.50;95354.00;4954259;28;20027;-69
2022/05/02 03:14:10;;;;;;;1999.90;999.90;;;;;;;10.44;57.68;95351.81;4952294;28;20078;-68
2022/05/02 03:16:36;;;;;;;1999.90;999.90;;;;;;;10.56;58.13;95365.41;4954454;28;20108;-69
2022/05/02 03:19:01;;;;;;;1999.90;999.90;;;;;;;10.71;57.54;95383.72;4953786;29;20027;-68
2022/05/02 03:21:26;;;;;;;1999.90;999.90;;;;;;;10.80;57.26;95394.41;4954263;28;20031;-69
2022/05/02 03:23:52;;;;;;;1999.90;999.90;;;;;;;10.66;57.01;95370.53;4954147;28;20547;-68
2022/05/02 03:26:17;;;;;;;1999.90;999.90;;;;;;;10.59;57.19;95364.78;4954291;28;20031;-68
2022/05/02 03:28:42;;;;;;;1999.90;999.90;;;;;;;10.80;58.15;95408.53;4951894;28;20585;-68
2022/05/02 03:31:08;;;;;;;1999.90;999.90;;;;;;;10.73;57.53;95388.72;4952799;28;20027;-69
2022/05/02 03:33:33;;;;;;;1999.90;999.90;;;;;;;10.73;57.51;95394.84;4954386;28;20051;-68
2022/05/02 03:35:59;;;;;;;1999.90;999.90;;;;;;;10.56;57.97;95355.56;4953957;28;20585;-69
2022/05/02 03:38:24;;;;;;;1999.90;999.90;;;;;;;10.63;57.80;95379.88;4953237;28;20129;-70
2022/05/02 03:40:49;;;;;;;1999.90;999.90;;;;;;;10.48;57.84;95355.47;4953887;28;20051;-69
2022/05/02 03:43:15;;;;;;;1999.90;999.90;;;;;;;10.48;57.21;95356.25;4951984;29;20530;-69
2022/05/02 03:45:40;;;;;;;1999.90;999.90;;;;;;;10.60;57.37;95366.41;4953747;28;20034;-71
2022/05/02 03:48:06;;;;;;;1999.90;999.90;;;;;;;10.71;58.00;95389.03;4953395;28;20031;-68
2022/05/02 03:50:31;;;;;;;1999.90;999.90;;;;;;;10.63;57.78;95357.81;4953648;28;20042;-68
2022/05/02 03:52:57;;;;;;;1999.90;999.90;;;;;;;10.69;57.89;95369.91;4953796;28;20027;-68
2022/05/02 03:55:22;;;;;;;1999.90;999.90;;;;;;;10.65;57.79;95366.28;4952612;28;20126;-68
2022/05/02 03:57:48;;;;;;;1999.90;999.90;;;;;;;10.53;57.94;95350.03;4952589;28;20475;-68
2022/05/02 04:00:14;;;;;;;1999.90;999.90;;;;;;;10.12;57.47;95297.66;4953310;28;20039;-70
2022/05/02 04:02:40;;;;;;;1999.90;999.90;;;;;;;10.75;57.69;95381.22;4953388;28;20063;-69
2022/05/02 04:05:07;;;;;;;1999.90;999.90;;;;;;;10.83;57.90;95391.16;4952218;29;20019;-70
2022/05/02 04:07:32;;;;;;;1999.90;999.90;;;;;;;10.94;57.56;95389.88;4953383;28;20031;-70
2022/05/02 04:09:58;;;;;;;1999.90;999.90;;;;;;;10.99;57.41;95387.09;4952874;28;20398;-70
2022/05/02 04:12:24;;;;;;;1999.90;999.90;;;;;;;10.91;57.35;95369.97;4952630;28;20038;-70
2022/05/02 04:14:49;;;;;;;1999.90;999.90;;;;;;;10.83;57.67;95353.91;4967209;28;20035;-67
2022/05/02 04:17:14;;;;;;;1999.90;999.90;;;;;;;10.98;57.30;95374.09;4953304;28;20039;-67
2022/05/02 04:19:40;;;;;;;1999.90;999.90;;;;;;;10.87;57.06;95352.25;4952615;28;20060;-71
2022/05/02 04:22:05;;;;;;;1999.90;999.90;;;;;;;10.99;57.49;95355.16;4952803;28;20050;-68
2022/05/02 04:24:31;;;;;;;1999.90;999.90;;;;;;;11.14;57.35;95362.00;4952849;28;20027;-68
2022/05/02 04:26:57;;;;;;;1999.90;999.90;;;;;;;11.45;57.36;95392.16;4951637;28;20108;-68
2022/05/02 04:29:23;;;;;;;1999.90;999.90;;;;;;;11.31;56.61;95353.34;4951833;28;20023;-70
2022/05/02 04:31:48;;;;;;;1999.90;999.90;;;;;;;11.41;56.75;95355.78;4952494;28;20114;-71
2022/05/02 04:34:14;;;;;;;1999.90;999.90;;;;;;;11.68;56.15;95370.84;4953034;28;20027;-70
2022/05/02 04:36:39;;;;;;;1999.90;999.90;;;;;;;11.68;56.34;95338.88;4950995;28;20106;-70
2022/05/02 04:39:05;;;;;;;1999.90;999.90;;;;;;;12.08;55.69;95378.91;4951901;28;20110;-70
2022/05/02 04:41:31;;;;;;;1999.90;999.90;;;;;;;12.28;55.59;95391.69;4952620;28;20035;-70
2022/05/02 04:43:56;;;;;;;1999.90;999.90;;;;;;;12.49;55.36;95389.28;4952066;28;20028;-67
2022/05/02 04:46:22;;;;;;;1999.90;999.90;;;;;;;12.66;54.65;95391.22;4952532;29;20051;-70
2022/05/02 04:48:48;;;;;;;1999.90;999.90;;;;;;;12.75;54.40;95384.78;4952224;28;20428;-67
2022/05/02 04:51:13;;;;;;;1999.90;999.90;;;;;;;12.67;54.57;95358.06;4951675;28;20039;-70
2022/05/02 04:53:38;;;;;;;1999.90;999.90;;;;;;;12.66;54.16;95348.50;4951082;29;20432;-69
2022/05/02 04:56:04;;;;;;;1999.90;999.90;;;;;;;12.91;54.24;95387.00;4952475;28;20058;-72
2022/05/02 04:58:30;;;;;;;1999.90;999.90;;;;;;;12.73;53.73;95340.81;4951924;28;20078;-73
2022/05/02 05:00:55;;;;;;;1999.90;999.90;;;;;;;12.84;53.76;95358.09;4952589;28;20097;-73
2022/05/02 05:03:21;;;;;;;1999.90;999.90;;;;;;;13.13;53.89;95386.88;4952229;28;20027;-73
2022/05/02 05:05:47;;;;;;;1999.90;999.90;;;;;;;13.00;53.52;95350.44;4951524;28;20028;-70
2022/05/02 05:08:14;;;;;;;1999.90;999.90;;;;;;;13.19;53.25;95360.78;4951227;29;20093;-68
2022/05/02 05:11:01;;;;;;;1999.90;999.90;;;;;;;13.14;53.14;95334.25;4950778;28;20027;-66
2022/05/02 05:13:44;;;;;;;1999.90;999.90;;;;;;;13.59;53.21;95376.66;4952350;28;20043;-68
2022/05/02 05:16:24;;;;;;;1999.90;999.90;;;;;;;13.78;52.53;95375.22;4951218;29;20054;-69
2022/05/02 05:19:26;;;;;;;1999.90;999.90;;;;;;;14.10;52.51;95365.06;4951430;28;20027;-72
2022/05/02 05:22:05;;;;;;;1999.90;999.90;;;;;;;14.37;51.98;95363.06;4950853;28;20080;-70
2022/05/02 05:24:33;;;;;;;1999.90;999.90;;;;;;;14.61;50.92;95367.84;4951841;28;20107;-69
2022/05/02 05:27:16;;;;;;;1999.90;999.90;;;;;;;14.65;50.39;95336.66;4951711;28;20094;-70
2022/05/02 05:29:41;;;;;;;1999.90;999.90;;;;;;;15.00;50.26;95351.38;4951061;28;20043;-70
2022/05/02 05:32:44;;;;;;;1999.90;999.90;;;;;;;15.22;49.84;95354.84;4951701;28;20031;-70
2022/05/02 05:35:11;;;;;;;1999.90;999.90;;;;;;;15.43;49.00;95350.25;4950947;29;20042;-70
2022/05/02 05:37:58;;;;;;;1999.90;999.90;;;;;;;15.72;48.64;95353.97;4951479;28;20491;-71
2022/05/02 05:40:35;;;;;;;1999.90;999.90;;;;;;;15.98;48.13;95342.94;4951645;29;20035;-70
2022/05/02 05:43:06;;;;;;;1999.90;999.90;;;;;;;16.19;47.28;95348.22;4949944;29;20380;-70
2022/05/02 05:45:36;;;;;;;1999.90;999.90;;;;;;;16.37;46.94;95350.34;4951258;28;20031;-70
2022/05/02 05:48:43;;;;;;;1999.90;999.90;;;;;;;16.58;46.41;95347.56;4951211;28;20684;-70
2022/05/02 05:51:17;;;;;;;1999.90;999.90;;;;;;;16.83;46.43;95342.97;4950154;28;20034;-69
2022/05/02 05:53:54;;;;;;;1999.90;999.90;;;;;;;17.06;45.91;95343.28;4950355;28;20507;-69
2022/05/02 05:56:51;;;;;;;1999.90;999.90;;;;;;;17.26;45.09;95349.59;4951384;28;20027;-70
2022/05/02 05:59:44;;;;;;;1999.90;999.90;;;;;;;17.52;44.85;95345.69;4950965;28;20035;-69
2022/05/02 06:02:21;;;;;;;1999.90;999.90;;;;;;;17.81;44.27;95348.06;4951301;28;20055;-69
2022/05/02 06:04:50;;;;;;;1999.90;999.90;;;;;;;18.07;44.06;95347.56;4950852;28;20087;-70
2022/05/02 06:07:20;;;;;;;1999.90;999.90;;;;;;;18.02;43.45;95320.13;4951582;28;20035;-69
2022/05/02 06:09:48;;;;;;;1999.90;999.90;;;;;;;18.25;43.46;95331.84;4951298;28;20034;-69
2022/05/02 06:12:15;;;;;;;1999.90;999.90;;;;;;;18.44;43.04;95334.63;4951289;28;20385;-69
2022/05/02 06:20:16;;;;;;;1999.90;999.90;;;;;;;18.13;42.99;95335.41;4950500;29;20094;-70
2022/05/02 06:22:42;;;;;;;1999.90;999.90;;;;;;;17.98;42.93;95308.50;4951287;28;20047;-70
2022/05/02 06:25:08;;;;;;;1999.90;999.90;;;;;;;18.10;43.37;95330.72;4951330;28;20399;-71
2022/05/02 06:27:34;;;;;;;1999.90;999.90;;;;;;;18.22;43.32;95337.13;4951343;28;20416;-70
2022/05/02 06:30:04;;;;;;;1999.90;999.90;;;;;;;18.53;43.14;95347.91;4949393;28;20141;-70
2022/05/02 06:32:36;;;;;;;1999.90;999.90;;;;;;;18.75;43.31;95356.50;4949819;28;20035;-70
2022/05/02 06:35:01;;;;;;;1999.90;999.90;;;;;;;18.51;42.91;95355.53;4949425;28;20027;-69
2022/05/02 06:37:33;;;;;;;1999.90;999.90;;;;;;;18.57;42.75;95356.84;4949891;29;20094;-70
2022/05/02 06:40:03;;;;;;;1999.90;999.90;;;;;;;18.49;43.64;95351.66;4950502;28;20034;-70
2022/05/02 06:42:36;;;;;;;1999.90;999.90;;;;;;;18.63;43.85;95347.38;4952576;28;20047;-69
2022/05/02 06:45:21;;;;;;;1999.90;999.90;;;;;;;19.12;43.41;95349.63;4953721;28;20029;-70
2022/05/02 06:48:05;;;;;;;1999.90;999.90;;;;;;;19.30;42.52;95331.13;4969460;28;20042;-67
2022/05/02 06:50:32;;;;;;;1999.90;999.90;;;;;;;19.60;41.66;95308.97;4952694;28;20122;-71
2022/05/02 06:53:01;;;;;;;1999.90;999.90;;;;;;;20.00;41.33;95346.34;4950989;28;20097;-69
2022/05/02 06:55:43;;;;;;;1999.90;999.90;;;;;;;19.17;42.37;95354.75;4952442;28;20030;-70
2022/05/02 06:58:35;;;;;;;1999.90;999.90;;;;;;;18.17;43.81;95311.28;4946959;29;20038;-70
2022/05/02 07:01:16;;;;;;;1999.90;999.90;;;;;;;18.39;44.16;95350.25;4966326;28;20027;-71
2022/05/02 07:04:04;;;;;;;1999.90;999.90;;;;;;;18.43;44.57;95343.06;4944526;28;20031;-77
2022/05/02 07:06:54;;;;;;;1999.90;999.90;;;;;;;18.53;43.90;95347.91;4946375;28;20023;-76
2022/05/02 07:09:31;;;;;;;1999.90;999.90;;;;;;;18.48;44.58;95336.59;4960235;28;20035;-77
2022/05/02 07:12:17;;;;;;;1999.90;999.90;;;;;;;18.76;44.14;95349.97;4949698;28;20031;-77
2022/05/02 07:14:58;;;;;;;1999.90;999.90;;;;;;;19.22;43.23;95334.81;4950110;29;20564;-77
2022/05/02 07:17:56;;;;;;;1999.90;999.90;;;;;;;19.46;42.17;95333.75;4951460;28;20027;-78
2022/05/02 07:20:46;;;;;;;1999.90;999.90;;;;;;;19.83;41.89;95336.78;4937526;28;20039;-76
2022/05/02 07:23:48;;;;;;;1999.90;999.90;;;;;;;19.86;41.09;95335.28;4952065;29;20039;-70
2022/05/02 07:26:17;;;;;;;1999.90;999.90;;;;;;;19.86;41.61;95319.09;4963117;28;20078;-68
2022/05/02 07:28:48;;;;;;;1999.90;999.90;;;;;;;19.71;41.04;95318.84;4950210;28;20019;-69
2022/05/02 07:31:22;;;;;;;1999.90;999.90;;;;;;;19.27;41.76;95337.22;4951949;28;20035;-72
2022/05/02 07:33:52;;;;;;;1999.90;999.90;;;;;;;19.41;41.90;95294.34;4952440;28;20104;-71
2022/05/02 07:36:20;;;;;;;1999.90;999.90;;;;;;;19.37;41.79;95325.09;4950323;28;20035;-75
2022/05/02 07:38:47;;;;;;;1999.90;999.90;;;;;;;18.84;43.27;95305.91;4951719;28;20042;-74
2022/05/02 07:41:23;;;;;;;1999.90;999.90;;;;;;;19.09;42.65;95327.97;4953601;28;20027;-75
2022/05/02 07:43:52;;;;;;;1999.90;999.90;;;;;;;19.06;42.02;95289.03;4951740;28;20043;-75
2022/05/02 07:46:21;;;;;;;1999.90;999.90;;;;;;;19.39;42.04;95312.00;4952250;28;20035;-74
2022/05/02 07:48:49;;;;;;;1999.90;999.90;;;;;;;19.59;41.73;95332.47;4952556;28;20027;-74
2022/05/02 07:51:15;;;;;;;1999.90;999.90;;;;;;;19.49;41.37;95297.94;4949121;28;20031;-73
2022/05/02 07:53:44;;;;;;;1999.90;999.90;;;;;;;19.20;41.71;95289.31;4952297;28;20035;-73
2022/05/02 07:56:10;;;;;;;1999.90;999.90;;;;;;;19.60;41.73;95322.47;4949025;28;20019;-73
2022/05/02 07:58:45;;;;;;;1999.90;999.90;;;;;;;20.13;41.18;95330.75;4964848;28;20054;-72
2022/05/02 08:01:11;;;;;;;1999.90;999.90;;;;;;;19.96;40.62;95308.50;4952663;28;20483;-73
2022/05/02 08:03:36;;;;;;;1999.90;999.90;;;;;;;20.39;40.38;95316.50;4949743;29;20039;-73
2022/05/02 08:06:29;;;;;;;1999.90;999.90;;;;;;;19.43;41.49;95318.28;4946993;28;20036;-74
2022/05/02 08:09:11;;;;;;;1999.90;999.90;;;;;;;19.76;41.13;95303.47;4950988;28;20038;-71
2022/05/02 08:12:10;;;;;;;1999.90;999.90;;;;;;;20.35;39.86;95289.44;4952388;28;20032;-71
2022/05/02 08:14:38;;;;;;;1999.90;999.90;;;;;;;20.29;39.36;95315.19;4950709;29;20034;-74
2022/05/02 08:17:19;;;;;;;1999.90;999.90;;;;;;;19.94;39.76;95283.75;4947863;28;20031;-72
2022/05/02 08:20:11;;;;;;;1999.90;999.90;;;;;;;19.38;40.46;95318.56;4952864;28;20030;-75
2022/05/02 08:28:52;;;;;;;1999.90;999.90;;;;;;;20.37;39.40;95287.16;4948532;28;20102;-75
2022/05/02 08:31:30;;;;;;;1999.90;999.90;;;;;;;20.44;39.73;95310.81;4951067;28;20162;-71
2022/05/02 08:34:18;;;;;;;1999.90;999.90;;;;;;;20.25;39.76;95317.06;4952293;28;20027;-71
2022/05/02 08:36:58;;;;;;;1999.90;999.90;;;;;;;19.84;39.69;95311.34;4946524;28;20019;-74
2022/05/02 08:39:39;;;;;;;1999.90;999.90;;;;;;;20.58;40.17;95302.16;4946001;28;20031;-74
2022/05/02 08:42:42;;;;;;;1999.90;999.90;;;;;;;21.54;37.99;95314.25;4952292;28;20035;-72
2022/05/02 08:45:27;;;;;;;1999.90;999.90;;;;;;;22.09;36.05;95317.13;4952528;29;20065;-71
2022/05/02 08:48:30;;;;;;;1999.90;999.90;;;;;;;22.66;35.58;95309.47;4954499;28;20047;-74
2022/05/02 08:50:55;;;;;;;1999.90;999.90;;;;;;;22.94;34.32;95308.13;4952030;29;20027;-74
2022/05/02 08:53:20;;;;;;;1999.90;999.90;;;;;;;22.38;35.55;95312.78;4950961;29;20625;-71
2022/05/02 08:56:01;;;;;;;1999.90;999.90;;;;;;;22.58;34.89;95308.66;4951850;28;20035;-71
2022/05/02 08:58:51;;;;;;;1999.90;999.90;;;;;;;21.73;35.74;95313.28;4950131;28;20031;-71
2022/05/02 09:01:56;;;;;;;1999.90;999.90;;;;;;;20.38;38.41;95304.94;4952093;29;20110;-71
2022/05/02 09:04:48;;;;;;;1999.90;999.90;;;;;;;21.18;37.04;95307.59;4947805;28;20030;-70
2022/05/02 09:07:20;;;;;;;1999.90;999.90;;;;;;;21.14;37.55;95310.28;4950833;28;20399;-74
2022/05/02 09:10:03;;;;;;;1999.90;999.90;;;;;;;22.01;36.01;95310.09;4949881;28;20043;-72
2022/05/02 09:12:46;;;;;;;1999.90;999.90;;;;;;;22.74;34.73;95304.88;4947575;28;20126;-71
2022/05/02 09:15:57;;;;;;;1999.90;999.90;;;;;;;23.15;33.84;95305.53;4951665;28;20035;-73
2022/05/02 09:18:53;;;;;;;1999.90;999.90;;;;;;;23.84;33.19;95308.13;4865927;29;20078;-73
2022/05/02 09:21:28;;;;;;;1999.90;999.90;;;;;;;23.80;33.40;95303.84;4939805;28;20495;-72
2022/05/02 09:24:11;;;;;;;1999.90;999.90;;;;;;;23.90;33.17;95302.31;4953087;28;20032;-72
2022/05/02 09:27:02;;;;;;;1999.90;999.90;;;;;;;23.83;32.84;95303.84;4950813;28;20480;-72
2022/05/02 09:29:45;;;;;;;1999.90;999.90;;;;;;;22.89;34.57;95305.78;4947993;28;20085;-71
2022/05/02 09:32:25;;;;;;;1999.90;999.90;;;;;;;23.55;33.25;95290.19;4949810;28;20039;-72
2022/05/02 09:35:02;;;;;;;1999.90;999.90;;;;;;;22.99;33.91;95307.78;4950587;28;20038;-71
2022/05/02 09:37:40;;;;;;;1999.90;999.90;;;;;;;22.62;34.34;95303.25;4952374;28;20027;-72
2022/05/02 09:40:17;;;;;;;1999.90;999.90;;;;;;;22.50;35.18;95300.84;4950077;28;20039;-70
2022/05/02 09:43:05;;;;;;;1999.90;999.90;;;;;;;22.52;34.95;95306.66;4948804;28;20038;-69
2022/05/02 09:51:40;;;;;;;1999.90;999.90;;;;;;;23.33;33.32;95294.75;4933103;29;20046;-70
2022/05/02 09:57:35;;;;;;;1999.90;999.90;;;;;;;24.40;31.17;95281.41;4944903;28;20486;-69
2022/05/02 10:02:57;;;;;;;1999.90;999.90;;;;;;;25.08;30.63;95276.66;4932816;29;20034;-74
2022/05/02 10:05:45;;;;;;;1999.90;999.90;;;;;;;25.22;30.05;95278.53;4968337;28;20453;-74
2022/05/02 10:08:20;;;;;;;1999.90;999.90;;;;;;;24.29;31.25;95291.47;4950767;28;20035;-72
2022/05/02 10:11:15;;;;;;;1999.90;999.90;;;;;;;23.35;33.51;95257.94;4949777;29;20038;-75
2022/05/02 10:13:52;;;;;;;1999.90;999.90;;;;;;;23.97;35.46;95294.19;4944591;28;20050;-73
2022/05/02 10:16:36;;;;;;;1999.90;999.90;;;;;;;23.94;33.30;95286.78;4951122;28;20019;-75
2022/05/02 10:19:19;;;;;;;1999.90;999.90;;;;;;;24.06;32.81;95278.28;4954378;28;20028;-73
2022/05/02 10:21:59;;;;;;;1999.90;999.90;;;;;;;23.43;34.30;95263.38;4955851;28;20094;-76
2022/05/02 10:25:07;;;;;;;1999.90;999.90;;;;;;;23.79;34.04;95280.56;4952986;29;20106;-74
2022/05/02 10:27:59;;;;;;;1999.90;999.90;;;;;;;23.44;32.35;95283.91;4955573;29;20038;-70
2022/05/02 10:30:30;;;;;;;1999.90;999.90;;;;;;;22.68;33.21;95265.72;4965345;28;20019;-69
2022/05/02 10:32:56;;;;;;;1999.90;999.90;;;;;;;23.14;32.80;95278.78;4952609;28;20043;-72
2022/05/02 10:35:26;;;;;;;1999.90;999.90;;;;;;;22.84;33.04;95239.88;4954589;28;20039;-71
2022/05/02 10:37:59;;;;;;;1999.90;999.90;;;;;;;23.32;32.10;95279.63;4953208;29;20082;-72
2022/05/02 10:40:38;;;;;;;1999.90;999.90;;;;;;;24.27;31.35;95255.75;4947878;28;20411;-67
2022/05/02 10:43:06;;;;;;;1999.90;999.90;;;;;;;23.95;30.81;95261.16;4954839;28;20023;-67
2022/05/02 10:45:36;;;;;;;1999.90;999.90;;;;;;;24.71;29.48;95268.16;4954843;28;20035;-71
2022/05/02 10:48:17;;;;;;;1999.90;999.90;;;;;;;24.69;28.59;95271.28;4953894;28;20035;-74
2022/05/02 10:51:05;;;;;;;1999.90;999.90;;;;;;;25.06;28.45;95234.63;4955732;28;20089;-70
2022/05/02 10:53:59;;;;;;;1999.90;999.90;;;;;;;25.64;28.54;95263.16;4964966;28;22208;-73
2022/05/02 10:56:34;;;;;;;1999.90;999.90;;;;;;;25.93;29.61;95263.78;4945407;28;20027;-72
2022/05/02 10:59:03;;;;;;;1999.90;999.90;;;;;;;26.03;29.10;95232.19;4949204;29;20524;-75
2022/05/02 11:02:18;;;;;;;1999.90;999.90;;;;;;;26.03;28.78;95262.16;4954226;28;20028;-69
2022/05/02 11:05:05;;;;;;;1999.90;999.90;;;;;;;25.28;31.44;95259.84;4878921;29;20033;-71
2022/05/02 11:07:45;;;;;;;1999.90;999.90;;;;;;;25.48;30.79;95260.13;4892516;29;20024;-74
2022/05/02 11:10:13;;;;;;;1999.90;999.90;;;;;;;25.84;29.65;95241.66;4940774;28;20109;-72
2022/05/02 11:12:45;;;;;;;1999.90;999.90;;;;;;;25.77;29.94;95258.84;4954856;28;20413;-70
2022/05/02 11:15:17;;;;;;;1999.90;999.90;;;;;;;25.90;30.22;95250.97;4952198;28;20049;-70
2022/05/02 11:20:41;;;;;;;1999.90;999.90;;;;;;;25.58;30.71;95251.91;4954157;28;20024;-70
2022/05/02 11:21:41;;;;;;;1999.90;999.90;;;;;;;25.32;30.68;95247.00;4954415;29;20043;-68
2022/05/02 11:24:19;;;;;;;1999.90;999.90;;;;;;;25.01;30.85;95251.38;4953242;28;20035;-68
2022/05/02 11:27:02;;;;;;;1999.90;999.90;;;;;;;24.84;31.76;95256.47;4953515;28;20095;-68
2022/05/02 11:29:39;;;;;;;1999.90;999.90;;;;;;;24.80;31.36;95249.50;4954480;28;20118;-68
2022/05/02 11:32:16;;;;;;;1999.90;999.90;;;;;;;24.48;32.33;95239.47;4953726;28;20035;-69
2022/05/02 11:35:02;;;;;;;1999.90;999.90;;;;;;;24.80;31.87;95211.41;4954083;28;20029;-68
2022/05/02 11:37:42;;;;;;;1999.90;999.90;;;;;;;25.26;30.30;95224.84;4953583;28;20035;-68
2022/05/02 11:40:11;;;;;;;1999.90;999.90;;;;;;;24.88;29.81;95235.47;4952919;28;20058;-68
2022/05/02 11:42:46;;;;;;;1999.90;999.90;;;;;;;25.28;29.63;95230.66;4954443;28;20031;-68
2022/05/02 11:45:17;;;;;;;1999.90;999.90;;;;;;;25.17;30.04;95235.38;4952885;28;20456;-68
2022/05/02 11:47:54;;;;;;;1999.90;999.90;;;;;;;25.20;29.87;95233.84;4953150;28;20361;-68
2022/05/02 11:50:24;;;;;;;1999.90;999.90;;;;;;;25.51;29.64;95199.44;4951254;28;20031;-68